Time;durP1;ratioP1;P1;durP2;ratioP2;P2;SDS_P1;SDS_P2;PMS_P1;PMS_P2;Temp;Humidity;BMP_temperature;BMP_pressure;BME280_temperature;BME280_humidity;BME280_pressure;Samples;Min_cycle;Max_cycle;Signal;HPM_P1;HPM_P2
2022/05/10 00:01:54;;;;;;;;;;;;;;;15.07;59.97;98576.97;4946427;28;19930;-56
2022/05/10 00:04:42;;;;;;;;;;;;;;;14.99;60.13;98577.00;4940941;29;19937;-56
2022/05/10 00:07:32;;;;;;;;;;;;;;;14.92;60.30;98578.31;4940187;29;19933;-57
2022/05/10 00:10:22;;;;;;;;;;;;;;;14.93;60.50;98579.09;4945012;29;19933;-56
2022/05/10 00:13:11;;;;;;;;;;;;;;;14.87;60.69;98583.94;4944048;29;19933;-56
2022/05/10 00:16:24;;;;;;;;;;;;;;;14.76;60.80;98579.13;4942121;28;19970;-56
2022/05/10 00:19:14;;;;;;;;;;;;;;;14.67;61.18;98584.56;4943251;29;20277;-50
2022/05/10 00:22:02;;;;;;;;;;;;;;;14.54;61.15;98580.06;4939810;29;19927;-53
2022/05/10 00:24:51;;;;;;;;;;;;;;;14.59;61.38;98577.97;4946768;28;19927;-55
2022/05/10 00:27:40;;;;;;;;;;;;;;;14.58;61.10;98579.09;4944127;29;19934;-54
2022/05/10 00:30:28;;;;;;;;;;;;;;;14.57;61.23;98574.75;4936235;28;20017;-56
2022/05/10 00:33:17;;;;;;;;;;;;;;;14.57;61.04;98574.75;4949289;28;19926;-56
2022/05/10 00:36:08;;;;;;;;;;;;;;;14.61;60.93;98575.72;4947664;29;20013;-54
2022/05/10 00:38:56;;;;;;;;;;;;;;;14.71;60.50;98582.03;4945186;29;20021;-56
2022/05/10 00:41:48;;;;;;;;;;;;;;;14.66;60.72;98583.78;4944259;29;20076;-56
2022/05/10 00:44:39;;;;;;;;;;;;;;;14.63;60.77;98587.13;4950504;28;19937;-56
2022/05/10 00:47:28;;;;;;;;;;;;;;;14.46;61.40;98584.38;4945655;29;20331;-55
2022/05/10 00:50:17;;;;;;;;;;;;;;;14.35;61.73;98574.88;4950342;28;20524;-56
2022/05/10 00:53:06;;;;;;;;;;;;;;;14.32;61.66;98578.22;4948520;29;19993;-56
2022/05/10 00:55:56;;;;;;;;;;;;;;;14.35;61.70;98572.16;4940722;29;20049;-55
2022/05/10 00:58:26;;;;;;;;;;;;;;;14.23;62.08;98577.44;4945560;29;19926;-56
2022/05/10 01:01:17;;;;;;;;;;;;;;;14.15;62.16;98579.81;4944273;28;19926;-56
2022/05/10 01:04:09;;;;;;;;;;;;;;;14.12;62.25;98576.94;4950010;28;20299;-56
2022/05/10 01:06:38;;;;;;;;;;;;;;;14.30;61.39;98564.09;4938644;28;19937;-56
2022/05/10 01:09:07;;;;;;;;;;;;;;;14.30;61.45;98575.03;4976923;28;19926;-56
2022/05/10 01:11:58;;;;;;;;;;;;;;;14.28;61.26;98571.81;4944856;29;20013;-54
2022/05/10 01:14:47;;;;;;;;;;;;;;;14.15;61.59;98577.09;4945811;28;19963;-56
2022/05/10 01:17:37;;;;;;;;;;;;;;;14.16;61.53;98581.41;4949988;29;19949;-56
2022/05/10 01:20:27;;;;;;;;;;;;;;;14.12;61.83;98575.00;4948248;29;19926;-57
2022/05/10 01:23:24;;;;;;;;;;;;;;;14.10;61.58;98574.50;4948753;29;20407;-56
2022/05/10 01:26:14;;;;;;;;;;;;;;;14.21;61.52;98563.28;4947511;29;20156;-56
2022/05/10 01:29:05;;;;;;;;;;;;;;;14.17;61.60;98565.84;4949641;29;19974;-57
2022/05/10 01:34:57;;;;;;;;;;;;;;;14.05;61.69;98566.44;4946154;29;19981;-56
2022/05/10 01:37:47;;;;;;;;;;;;;;;14.03;61.60;98560.50;4950248;29;20276;-57
2022/05/10 01:40:36;;;;;;;;;;;;;;;14.10;61.39;98568.22;4947085;28;19926;-53
2022/05/10 01:43:26;;;;;;;;;;;;;;;13.95;61.96;98569.47;4944681;28;20025;-55
2022/05/10 01:45:56;;;;;;;;;;;;;;;13.77;62.69;98559.63;4950807;29;19927;-56
2022/05/10 01:48:43;;;;;;;;;;;;;;;13.78;62.38;98558.50;4949124;29;19937;-56
2022/05/10 01:51:33;;;;;;;;;;;;;;;13.70;62.75;98562.81;4949591;29;20232;-56
2022/05/10 01:54:34;;;;;;;;;;;;;;;13.66;62.83;98556.38;4950128;29;19941;-54
2022/05/10 01:57:20;;;;;;;;;;;;;;;13.53;63.14;98560.84;4949611;29;20069;-54
2022/05/10 02:00:11;;;;;;;;;;;;;;;13.67;62.71;98554.44;4945628;29;19933;-55
2022/05/10 02:03:03;;;;;;;;;;;;;;;13.53;63.07;98557.28;4949425;29;20406;-50
2022/05/10 02:05:33;;;;;;;;;;;;;;;13.46;63.58;98552.28;4942759;29;19927;-55
2022/05/10 02:08:03;;;;;;;;;;;;;;;13.51;63.23;98554.06;4940826;29;20282;-52
2022/05/10 02:10:32;;;;;;;;;;;;;;;13.53;63.15;98557.28;4944003;28;20017;-56
2022/05/10 02:13:01;;;;;;;;;;;;;;;13.46;63.31;98546.81;4943947;29;19981;-56
2022/05/10 02:15:36;;;;;;;;;;;;;;;13.45;63.37;98556.13;4947213;29;19981;-56
2022/05/10 02:18:08;;;;;;;;;;;;;;;13.39;63.58;98551.94;4947115;28;19933;-57
2022/05/10 02:20:46;;;;;;;;;;;;;;;13.38;63.47;98550.31;4947487;28;19949;-56
2022/05/10 02:23:16;;;;;;;;;;;;;;;13.20;64.17;98546.66;4948603;28;19933;-57
2022/05/10 02:25:45;;;;;;;;;;;;;;;13.33;63.78;98547.72;4945505;28;20022;-56
2022/05/10 02:28:15;;;;;;;;;;;;;;;13.36;63.78;98553.34;4947604;29;20410;-55
2022/05/10 02:30:48;;;;;;;;;;;;;;;13.36;63.56;98545.16;4943372;29;19927;-56
2022/05/10 02:33:17;;;;;;;;;;;;;;;13.40;63.51;98550.81;4943460;29;19926;-56
2022/05/10 02:36:13;;;;;;;;;;;;;;;13.36;63.30;98541.63;4947410;29;19930;-56
2022/05/10 02:38:42;;;;;;;;;;;;;;;13.29;63.57;98541.28;4938248;28;19973;-55
2022/05/10 02:41:11;;;;;;;;;;;;;;;13.27;63.42;98540.81;4938926;29;20235;-57
2022/05/10 02:43:43;;;;;;;;;;;;;;;13.24;63.38;98539.50;4943160;29;19930;-56
2022/05/10 02:46:11;;;;;;;;;;;;;;;13.15;63.65;98540.53;4949876;28;20347;-57
2022/05/10 02:48:43;;;;;;;;;;;;;;;13.20;63.59;98543.13;4948529;28;19934;-57
2022/05/10 02:51:10;;;;;;;;;;;;;;;12.99;64.15;98546.38;4941887;29;19930;-54
2022/05/10 02:53:45;;;;;;;;;;;;;;;12.93;64.35;98533.97;4945178;28;19935;-56
2022/05/10 02:56:13;;;;;;;;;;;;;;;12.85;64.33;98529.28;4943399;29;19934;-55
2022/05/10 02:58:44;;;;;;;;;;;;;;;13.07;63.91;98525.72;4942197;29;20430;-51
2022/05/10 03:01:14;;;;;;;;;;;;;;;13.00;64.03;98528.91;4941756;29;20440;-56
2022/05/10 03:03:43;;;;;;;;;;;;;;;12.94;63.96;98519.22;4943447;29;19934;-56
2022/05/10 03:06:37;;;;;;;;;;;;;;;12.91;63.86;98522.59;4943313;28;19978;-56
2022/05/10 03:09:05;;;;;;;;;;;;;;;12.82;64.30;98519.78;4942791;29;20327;-57
2022/05/10 03:11:35;;;;;;;;;;;;;;;12.77;64.41;98519.13;4946904;28;19927;-56
2022/05/10 03:14:03;;;;;;;;;;;;;;;12.73;64.42;98523.56;4943985;29;19964;-56
2022/05/10 03:16:55;;;;;;;;;;;;;;;12.70;64.40;98524.22;4947470;29;20387;-56
2022/05/10 03:19:24;;;;;;;;;;;;;;;12.84;64.15;98524.97;4944361;29;19930;-53
2022/05/10 03:21:53;;;;;;;;;;;;;;;13.02;63.34;98518.47;4941783;28;20299;-50
2022/05/10 03:24:24;;;;;;;;;;;;;;;12.92;63.70;98521.47;4947482;28;20220;-56
2022/05/10 03:26:55;;;;;;;;;;;;;;;12.98;63.30;98519.41;4946279;29;20342;-57
2022/05/10 03:29:25;;;;;;;;;;;;;;;13.05;62.88;98526.06;4942542;28;20343;-53
2022/05/10 03:31:55;;;;;;;;;;;;;;;12.84;63.18;98524.97;4947065;29;19930;-54
2022/05/10 03:37:10;;;;;;;;;;;;;;;12.64;63.96;98528.19;4948694;29;19926;-56
2022/05/10 03:39:38;;;;;;;;;;;;;;;12.40;64.74;98529.25;4944217;28;20351;-56
2022/05/10 03:42:06;;;;;;;;;;;;;;;12.24;65.49;98528.00;4936764;29;19938;-56
2022/05/10 03:44:34;;;;;;;;;;;;;;;12.41;64.85;98528.16;4946626;29;20056;-56
2022/05/10 03:47:04;;;;;;;;;;;;;;;12.52;64.42;98528.75;4949006;29;19927;-56
2022/05/10 03:49:32;;;;;;;;;;;;;;;12.41;64.52;98522.72;4945393;29;20379;-56
2022/05/10 03:52:06;;;;;;;;;;;;;;;12.51;64.43;98533.34;4942386;28;19981;-56
2022/05/10 03:54:35;;;;;;;;;;;;;;;12.57;64.29;98523.97;4944157;29;20592;-55
2022/05/10 03:57:03;;;;;;;;;;;;;;;12.71;63.92;98525.81;4942523;29;19989;-54
2022/05/10 03:59:31;;;;;;;;;;;;;;;12.75;63.81;98530.34;4940630;29;20332;-55
2022/05/10 04:01:59;;;;;;;;;;;;;;;12.65;63.89;98530.59;4947165;28;20037;-55
2022/05/10 04:04:30;;;;;;;;;;;;;;;12.55;64.26;98528.09;4941442;29;20308;-55
2022/05/10 04:06:58;;;;;;;;;;;;;;;12.54;64.49;98532.75;4947909;29;19938;-56
2022/05/10 04:09:26;;;;;;;;;;;;;;;12.56;64.42;98530.50;4946678;29;20312;-56
2022/05/10 04:11:55;;;;;;;;;;;;;;;12.53;64.47;98542.03;4930937;28;20717;-56
2022/05/10 04:14:24;;;;;;;;;;;;;;;12.79;63.57;98530.53;4938463;29;19941;-54
2022/05/10 04:16:51;;;;;;;;;;;;;;;12.84;63.23;98524.97;4938718;29;19989;-56
2022/05/10 04:19:19;;;;;;;;;;;;;;;12.90;63.07;98522.91;4936111;29;19927;-56
2022/05/10 04:21:48;;;;;;;;;;;;;;;12.86;62.96;98522.72;4939987;28;20002;-55
2022/05/10 04:24:16;;;;;;;;;;;;;;;12.85;63.06;98521.09;4941570;29;19926;-56
2022/05/10 04:26:44;;;;;;;;;;;;;;;12.79;63.10;98520.44;4945053;29;19962;-57
2022/05/10 04:29:16;;;;;;;;;;;;;;;12.83;62.67;98520.59;4943942;29;20021;-55
2022/05/10 04:31:43;;;;;;;;;;;;;;;12.85;62.61;98521.91;4943838;29;19930;-55
2022/05/10 04:34:11;;;;;;;;;;;;;;;12.82;62.91;98521.72;4942073;29;20026;-55
2022/05/10 04:36:39;;;;;;;;;;;;;;;12.85;62.74;98521.09;4942202;28;20327;-54
2022/05/10 04:39:07;;;;;;;;;;;;;;;12.91;62.38;98519.88;4943516;28;19942;-54
2022/05/10 04:41:35;;;;;;;;;;;;;;;12.96;62.48;98518.94;4943010;28;19984;-56
2022/05/10 04:44:04;;;;;;;;;;;;;;;13.01;62.25;98518.81;4950443;28;19930;-56
2022/05/10 04:46:58;;;;;;;;;;;;;;;13.09;62.00;98518.84;4938863;29;19989;-55
2022/05/10 04:49:27;;;;;;;;;;;;;;;13.20;61.92;98524.03;4946046;29;19957;-56
2022/05/10 04:52:19;;;;;;;;;;;;;;;13.13;61.85;98521.75;4950617;28;19934;-56
2022/05/10 04:54:46;;;;;;;;;;;;;;;13.09;62.29;98529.75;4948157;29;19958;-57
2022/05/10 04:57:15;;;;;;;;;;;;;;;13.08;62.55;98532.78;4939555;28;19926;-56
2022/05/10 04:59:43;;;;;;;;;;;;;;;13.20;62.11;98532.22;4943242;29;19934;-54
2022/05/10 05:02:11;;;;;;;;;;;;;;;13.11;62.21;98540.38;4947445;29;19984;-57
2022/05/10 05:04:40;;;;;;;;;;;;;;;13.16;62.26;98536.69;4940121;28;20466;-56
2022/05/10 05:07:09;;;;;;;;;;;;;;;13.13;62.58;98540.84;4945403;29;19955;-57
2022/05/10 05:09:36;;;;;;;;;;;;;;;13.21;62.31;98544.72;4954638;28;19927;-57
2022/05/10 05:12:05;;;;;;;;;;;;;;;13.45;61.58;98544.41;4951447;29;20395;-57
2022/05/10 05:14:33;;;;;;;;;;;;;;;13.57;61.34;98553.59;4946249;28;19935;-56
2022/05/10 05:17:01;;;;;;;;;;;;;;;13.70;60.98;98546.44;4939443;28;19989;-55
2022/05/10 05:19:30;;;;;;;;;;;;;;;13.91;60.18;98552.13;4944227;28;19926;-57
2022/05/10 05:21:59;;;;;;;;;;;;;;;13.89;59.88;98549.69;4946023;28;19930;-56
2022/05/10 05:24:28;;;;;;;;;;;;;;;13.90;59.81;98553.22;4945930;28;19927;-57
2022/05/10 05:26:58;;;;;;;;;;;;;;;13.87;60.08;98556.59;4947965;28;20029;-55
2022/05/10 05:29:28;;;;;;;;;;;;;;;13.81;60.21;98555.94;4943986;28;21744;-57
2022/05/10 05:35:11;;;;;;;;;;;;;;;13.98;60.18;98557.94;4939993;29;20288;-57
2022/05/10 05:37:40;;;;;;;;;;;;;;;14.09;60.08;98553.78;4941482;28;20253;-57
2022/05/10 05:40:10;;;;;;;;;;;;;;;13.99;60.52;98556.78;4945655;29;19973;-58
2022/05/10 05:43:15;;;;;;;;;;;;;;;14.16;60.12;98554.09;4948007;28;19989;-58
2022/05/10 05:45:43;;;;;;;;;;;;;;;14.34;59.47;98548.66;4941458;29;19935;-57
2022/05/10 05:48:11;;;;;;;;;;;;;;;14.39;59.16;98549.31;4942643;28;19934;-57
2022/05/10 05:50:39;;;;;;;;;;;;;;;14.73;58.58;98539.53;4941106;29;20360;-57
2022/05/10 05:53:08;;;;;;;;;;;;;;;14.89;58.19;98534.34;4941457;28;20643;-57
2022/05/10 05:55:36;;;;;;;;;;;;;;;15.15;57.79;98529.63;4943765;29;20013;-57
2022/05/10 05:58:04;;;;;;;;;;;;;;;15.20;57.76;98531.41;4941222;28;19926;-58
2022/05/10 06:00:32;;;;;;;;;;;;;;;15.38;57.25;98529.41;4947963;28;20322;-58
2022/05/10 06:03:03;;;;;;;;;;;;;;;15.42;57.20;98527.63;4968538;28;20041;-55
2022/05/10 06:05:32;;;;;;;;;;;;;;;15.65;56.76;98519.97;4944063;28;20147;-57
2022/05/10 06:08:00;;;;;;;;;;;;;;;15.87;56.38;98527.13;4945198;28;20002;-57
2022/05/10 06:10:30;;;;;;;;;;;;;;;16.02;55.68;98529.28;4948210;28;19934;-58
2022/05/10 06:13:24;;;;;;;;;;;;;;;16.10;55.25;98531.19;4949582;28;19930;-57
2022/05/10 06:15:52;;;;;;;;;;;;;;;16.17;55.37;98522.41;4942100;28;19942;-58
2022/05/10 06:18:19;;;;;;;;;;;;;;;16.40;55.15;98525.63;4946482;28;19931;-58
2022/05/10 06:20:50;;;;;;;;;;;;;;;16.60;54.53;98524.81;4947847;28;20378;-58
2022/05/10 06:23:18;;;;;;;;;;;;;;;16.85;54.05;98524.97;4940928;28;19937;-58
2022/05/10 06:25:47;;;;;;;;;;;;;;;16.90;53.95;98524.75;4945856;28;19935;-58
2022/05/10 06:28:15;;;;;;;;;;;;;;;16.98;53.52;98527.41;4942719;28;19931;-58
2022/05/10 06:30:43;;;;;;;;;;;;;;;17.14;53.02;98529.50;4945884;29;19932;-58
2022/05/10 06:33:11;;;;;;;;;;;;;;;17.25;52.90;98522.44;4925873;29;20013;-57
2022/05/10 06:35:40;;;;;;;;;;;;;;;17.30;52.83;98527.72;4945445;29;19934;-58
2022/05/10 06:38:19;;;;;;;;;;;;;;;17.49;52.63;98532.69;4940999;28;19927;-57
2022/05/10 06:40:50;;;;;;;;;;;;;;;17.49;52.18;98527.19;4941193;28;19930;-58
2022/05/10 06:43:18;;;;;;;;;;;;;;;17.43;52.36;98523.88;4946691;28;19981;-57
2022/05/10 06:45:48;;;;;;;;;;;;;;;17.73;51.92;98529.16;4935967;29;20299;-56
2022/05/10 06:48:17;;;;;;;;;;;;;;;17.73;52.37;98523.66;4947930;29;20036;-58
2022/05/10 06:51:11;;;;;;;;;;;;;;;17.93;51.61;98535.69;4941012;28;19933;-56
2022/05/10 06:53:45;;;;;;;;;;;;;;;18.02;51.65;98541.88;4949254;29;20824;-56
2022/05/10 06:56:14;;;;;;;;;;;;;;;18.12;51.24;98529.63;4939428;28;20256;-55
2022/05/10 06:58:43;;;;;;;;;;;;;;;18.15;51.91;98535.22;4943970;28;20184;-57
2022/05/10 07:01:11;;;;;;;;;;;;;;;18.03;52.05;98530.53;4944207;28;19948;-55
2022/05/10 07:03:40;;;;;;;;;;;;;;;18.20;51.96;98531.44;4950052;28;19990;-56
2022/05/10 07:06:09;;;;;;;;;;;;;;;18.18;51.94;98531.78;4946558;28;19930;-56
2022/05/10 07:08:39;;;;;;;;;;;;;;;18.02;52.25;98531.69;4942562;28;19934;-56
2022/05/10 07:11:09;;;;;;;;;;;;;;;18.14;51.92;98525.38;4946428;28;19930;-56
2022/05/10 07:13:38;;;;;;;;;;;;;;;18.58;50.27;98517.22;4946981;29;19934;-56
2022/05/10 07:16:09;;;;;;;;;;;;;;;18.66;50.87;98521.81;4944034;28;20080;-57
2022/05/10 07:18:40;;;;;;;;;;;;;;;18.74;50.53;98518.13;4949684;29;19926;-56
2022/05/10 07:21:10;;;;;;;;;;;;;;;18.93;50.04;98530.44;4946477;28;19930;-56
2022/05/10 07:23:38;;;;;;;;;;;;;;;19.16;49.26;98525.94;4938983;28;19931;-57
2022/05/10 07:26:08;;;;;;;;;;;;;;;19.33;48.98;98527.56;4939123;28;19933;-56
2022/05/10 07:28:42;;;;;;;;;;;;;;;19.35;48.37;98531.59;4939037;29;20288;-56
2022/05/10 07:31:13;;;;;;;;;;;;;;;19.35;49.46;98528.84;4944145;28;20112;-57
2022/05/10 07:33:41;;;;;;;;;;;;;;;19.40;48.66;98527.78;4938108;29;19927;-57
2022/05/10 07:36:33;;;;;;;;;;;;;;;19.58;48.69;98522.69;4940098;28;19930;-57
2022/05/10 07:39:01;;;;;;;;;;;;;;;19.31;49.70;98519.66;4937990;28;20752;-54
2022/05/10 07:41:35;;;;;;;;;;;;;;;19.41;49.11;98523.06;4945426;29;20021;-57
2022/05/10 07:44:05;;;;;;;;;;;;;;;19.73;48.01;98527.44;4941340;28;19973;-55
2022/05/10 07:46:33;;;;;;;;;;;;;;;19.83;48.23;98518.63;4947398;29;19973;-57
2022/05/10 07:49:01;;;;;;;;;;;;;;;19.80;48.28;98516.56;4945025;28;19930;-56
2022/05/10 07:51:29;;;;;;;;;;;;;;;20.05;47.60;98513.63;4945667;28;20368;-57
2022/05/10 07:53:57;;;;;;;;;;;;;;;20.07;47.48;98506.56;4941529;28;20443;-57
2022/05/10 07:56:41;;;;;;;;;;;;;;;20.12;47.21;98520.09;4945029;28;19981;-56
2022/05/10 07:59:10;;;;;;;;;;;;;;;20.21;46.86;98506.09;4946101;28;19926;-56
2022/05/10 08:01:38;;;;;;;;;;;;;;;20.39;45.36;98501.75;4943372;28;19934;-57
2022/05/10 08:04:08;;;;;;;;;;;;;;;20.34;46.20;98515.03;4944681;28;20003;-58
2022/05/10 08:06:36;;;;;;;;;;;;;;;20.37;46.12;98517.88;4942815;28;19930;-58
2022/05/10 08:09:03;;;;;;;;;;;;;;;20.56;44.73;98506.09;4946305;29;19934;-58
2022/05/10 08:11:32;;;;;;;;;;;;;;;20.70;44.89;98510.31;4942753;28;19926;-57
2022/05/10 08:14:03;;;;;;;;;;;;;;;20.90;44.16;98504.41;4939799;28;19926;-58
2022/05/10 08:16:57;;;;;;;;;;;;;;;20.91;43.50;98505.19;4941121;28;19931;-57
2022/05/10 08:19:25;;;;;;;;;;;;;;;21.02;43.70;98505.41;4945303;29;20619;-57
2022/05/10 08:21:56;;;;;;;;;;;;;;;21.21;42.86;98507.34;4942119;28;19946;-54
2022/05/10 08:24:24;;;;;;;;;;;;;;;21.26;43.87;98510.59;4940317;29;19931;-56
2022/05/10 08:26:52;;;;;;;;;;;;;;;21.44;42.31;98511.72;4946377;29;19931;-57
2022/05/10 08:29:20;;;;;;;;;;;;;;;21.55;42.54;98513.88;4942500;29;19935;-57
2022/05/10 08:31:49;;;;;;;;;;;;;;;21.48;41.56;98511.81;4946290;28;19949;-56
2022/05/10 08:34:19;;;;;;;;;;;;;;;21.61;42.15;98504.09;4934731;29;19949;-57
2022/05/10 08:36:51;;;;;;;;;;;;;;;21.65;41.86;98505.75;4943198;29;19976;-57
2022/05/10 08:39:19;;;;;;;;;;;;;;;21.69;41.73;98503.06;4949257;29;20347;-57
2022/05/10 08:41:49;;;;;;;;;;;;;;;21.93;41.94;98501.84;4941661;29;19932;-57
2022/05/10 08:44:18;;;;;;;;;;;;;;;22.11;40.62;98499.38;4948516;28;19982;-57
2022/05/10 08:46:56;;;;;;;;;;;;;;;22.17;40.03;98497.91;4949652;29;20013;-56
2022/05/10 08:49:38;;;;;;;;;;;;;;;22.27;40.23;98502.00;4945634;28;19937;-57
2022/05/10 08:52:07;;;;;;;;;;;;;;;22.20;40.98;98497.13;4943963;28;20034;-56
2022/05/10 08:54:36;;;;;;;;;;;;;;;22.22;40.40;98498.38;4950842;29;19926;-57
2022/05/10 08:57:05;;;;;;;;;;;;;;;22.20;40.09;98491.59;4947620;29;19950;-58
2022/05/10 08:59:36;;;;;;;;;;;;;;;22.16;39.92;98499.06;4950357;29;19926;-57
2022/05/10 09:02:04;;;;;;;;;;;;;;;22.31;39.88;98486.19;4952231;29;19927;-57
2022/05/10 09:04:46;;;;;;;;;;;;;;;22.31;39.83;98486.19;4950233;29;20025;-57
2022/05/10 09:07:16;;;;;;;;;;;;;;;22.45;38.93;98484.44;4952180;29;19931;-57
2022/05/10 09:09:49;;;;;;;;;;;;;;;22.54;37.63;98488.88;4951860;29;20021;-57
2022/05/10 09:12:18;;;;;;;;;;;;;;;22.66;38.31;98475.59;4951660;29;19927;-57
2022/05/10 09:14:48;;;;;;;;;;;;;;;22.45;37.49;98478.88;4952258;29;19931;-57
2022/05/10 09:17:17;;;;;;;;;;;;;;;22.74;37.77;98477.28;4945019;29;19926;-57
2022/05/10 09:19:46;;;;;;;;;;;;;;;22.76;37.87;98474.13;4944771;28;20029;-57
2022/05/10 09:22:37;;;;;;;;;;;;;;;22.73;38.74;98472.09;4943751;28;19934;-57
2022/05/10 09:25:09;;;;;;;;;;;;;;;22.62;37.73;98462.88;4943006;29;19953;-57
2022/05/10 09:27:37;;;;;;;;;;;;;;;22.93;37.98;98462.47;4946065;28;19927;-57
2022/05/10 09:30:05;;;;;;;;;;;;;;;22.95;37.58;98471.19;4945162;28;19926;-57
2022/05/10 09:35:26;;;;;;;;;;;;;;;22.85;36.96;98463.53;4943315;29;20009;-57
2022/05/10 09:38:19;;;;;;;;;;;;;;;22.62;37.39;98462.88;4950429;28;19981;-57
2022/05/10 09:40:48;;;;;;;;;;;;;;;22.60;37.12;98460.47;4947241;29;20280;-57
2022/05/10 09:43:22;;;;;;;;;;;;;;;22.71;37.75;98463.38;4948572;29;19926;-57
2022/05/10 09:46:04;;;;;;;;;;;;;;;22.89;36.63;98458.84;4946446;29;20660;-57
2022/05/10 09:48:35;;;;;;;;;;;;;;;22.92;36.86;98460.88;4956689;28;19930;-57
2022/05/10 09:54:15;;;;;;;;;;;;;;;23.04;33.98;98451.47;5104874;27;2077121;-56
2022/05/10 09:56:44;;;;;;;;;;;;;;;23.02;33.57;98451.06;5167975;27;19927;-56
2022/05/10 09:59:29;;;;;;;;;;;;;;;23.06;34.11;98460.19;5175928;27;20163;-57
2022/05/10 10:01:58;;;;;;;;;;;;;;;23.23;36.26;98450.50;5170831;27;20432;-57
2022/05/10 10:04:28;;;;;;;;;;;;;;;23.26;36.27;98455.25;5176704;27;20383;-55
2022/05/10 10:07:04;;;;;;;;;;;;;;;23.49;33.90;98450.31;5162169;27;20413;-57
2022/05/10 10:09:33;;;;;;;;;;;;;;;23.38;33.75;98449.41;5185736;27;19991;-57
2022/05/10 10:12:02;;;;;;;;;;;;;;;23.45;33.15;98443.94;5167205;27;20439;-54
2022/05/10 10:14:38;;;;;;;;;;;;;;;23.41;33.65;98445.09;5171241;27;20292;-57
2022/05/10 10:17:06;;;;;;;;;;;;;;;23.28;34.06;98441.81;5167133;27;19971;-57
2022/05/10 10:19:35;;;;;;;;;;;;;;;23.42;34.76;98428.06;5177580;27;19998;-57
2022/05/10 10:22:04;;;;;;;;;;;;;;;23.52;33.92;98437.66;5161094;27;19923;-57
2022/05/10 10:24:34;;;;;;;;;;;;;;;23.14;32.82;98433.38;5179043;27;20042;-57
2022/05/10 10:27:03;;;;;;;;;;;;;;;22.92;33.13;98427.63;5173495;27;19923;-56
2022/05/10 10:29:38;;;;;;;;;;;;;;;22.98;34.41;98431.63;5158091;27;19947;-62
2022/05/10 10:32:08;;;;;;;;;;;;;;;23.22;33.81;98418.38;5156834;27;19928;-57
2022/05/10 10:35:05;;;;;;;;;;;;;;;23.37;33.26;98416.53;5150994;27;19927;-57
2022/05/10 10:37:34;;;;;;;;;;;;;;;23.59;33.50;98414.72;5175824;27;19926;-59
2022/05/10 10:40:07;;;;;;;;;;;;;;;23.49;33.73;98417.03;5170941;27;20422;-57
2022/05/10 10:42:38;;;;;;;;;;;;;;;23.52;33.81;98413.47;5160026;27;20289;-57
2022/05/10 10:45:09;;;;;;;;;;;;;;;23.51;34.70;98409.13;5172239;27;19923;-56
2022/05/10 10:47:38;;;;;;;;;;;;;;;23.64;33.66;98400.50;5177809;27;19983;-57
2022/05/10 10:50:09;;;;;;;;;;;;;;;23.52;32.96;98405.16;5170831;27;20295;-57
2022/05/10 10:52:38;;;;;;;;;;;;;;;23.61;33.39;98396.50;5156834;27;19954;-56
2022/05/10 10:55:33;;;;;;;;;;;;;;;23.57;33.62;98398.47;5162120;27;19962;-57
2022/05/10 10:58:09;;;;;;;;;;;;;;;23.52;33.94;98390.50;5169937;27;19923;-57
2022/05/10 11:00:38;;;;;;;;;;;;;;;23.56;34.01;98398.84;5166577;27;19923;-57
2022/05/10 11:03:07;;;;;;;;;;;;;;;23.58;33.34;98393.72;5165666;27;19982;-57
2022/05/10 11:05:54;;;;;;;;;;;;;;;23.70;34.67;98385.91;5162767;27;19937;-57
2022/05/10 11:08:27;;;;;;;;;;;;;;;23.78;33.50;98390.31;5161896;27;19923;-57
2022/05/10 11:10:57;;;;;;;;;;;;;;;23.74;34.47;98389.47;5151113;27;19968;-57
2022/05/10 11:13:37;;;;;;;;;;;;;;;23.67;32.27;98381.13;5167203;27;20321;-56
2022/05/10 11:16:14;;;;;;;;;;;;;;;23.75;32.67;98385.50;5157753;27;19927;-59
2022/05/10 11:18:48;;;;;;;;;;;;;;;23.68;31.92;98373.59;5167728;27;20092;-57
2022/05/10 11:21:20;;;;;;;;;;;;;;;23.70;32.13;98366.50;5152922;27;19923;-56
2022/05/10 11:23:50;;;;;;;;;;;;;;;23.79;33.11;98371.69;5150304;27;19945;-57
2022/05/10 11:26:20;;;;;;;;;;;;;;;23.64;33.91;98372.78;5159586;27;19922;-57
2022/05/10 11:28:57;;;;;;;;;;;;;;;23.26;34.09;98369.31;5162986;27;19922;-56
2022/05/10 11:31:28;;;;;;;;;;;;;;;23.44;34.13;98361.94;5162947;27;20382;-57
2022/05/10 11:33:58;;;;;;;;;;;;;;;23.46;34.39;98362.34;5136821;27;19923;-57
2022/05/10 11:36:30;;;;;;;;;;;;;;;23.54;34.72;98365.94;5159942;27;19923;-57
2022/05/10 11:39:03;;;;;;;;;;;;;;;23.79;33.96;98363.34;5138065;27;19962;-57
2022/05/10 11:41:33;;;;;;;;;;;;;;;23.85;31.52;98356.25;5156224;27;19923;-57
2022/05/10 11:44:20;;;;;;;;;;;;;;;24.04;31.53;98357.94;5159031;27;19976;-57
2022/05/10 11:46:56;;;;;;;;;;;;;;;24.11;32.04;98351.59;5161860;27;20058;-56
2022/05/10 11:49:29;;;;;;;;;;;;;;;24.20;31.83;98338.16;5157709;27;19922;-57
2022/05/10 11:52:39;;;;;;;;;;;;;;;24.11;32.35;98335.75;5146427;27;20410;-57
2022/05/10 11:55:31;;;;;;;;;;;;;;;24.20;32.46;98330.63;5138043;27;19954;-57
2022/05/10 11:57:59;;;;;;;;;;;;;;;24.03;30.83;98332.16;5146326;27;19927;-58
2022/05/10 12:00:57;;;;;;;;;;;;;;;24.17;32.77;98330.59;5139052;27;19923;-57
2022/05/10 12:03:43;;;;;;;;;;;;;;;24.19;31.79;98322.69;5154248;27;20334;-56
2022/05/10 12:06:31;;;;;;;;;;;;;;;24.48;32.44;98326.38;5143074;27;20367;-57
2022/05/10 12:09:04;;;;;;;;;;;;;;;24.62;30.68;98322.84;5159586;27;19960;-57
2022/05/10 12:11:37;;;;;;;;;;;;;;;24.71;31.16;98317.66;5157383;27;19923;-57
2022/05/10 12:24:04;;;;;;;;;;;;;;;24.36;30.72;98302.53;5154718;27;19929;-57
2022/05/10 12:26:34;;;;;;;;;;;;;;;24.36;30.71;98308.09;5153571;27;19983;-55
2022/05/10 12:29:01;;;;;;;;;;;;;;;24.32;31.79;98296.16;5143091;27;19927;-54
2022/05/10 12:31:50;;;;;;;;;;;;;;;24.40;31.79;98305.34;5158782;27;19984;-58
2022/05/10 12:34:44;;;;;;;;;;;;;;;24.55;30.77;98304.97;5140031;27;19927;-55
2022/05/10 12:37:35;;;;;;;;;;;;;;;24.79;30.15;98297.03;5155987;27;20192;-55
2022/05/10 12:40:07;;;;;;;;;;;;;;;24.84;29.56;98304.97;5122096;27;19945;-55
2022/05/10 12:42:39;;;;;;;;;;;;;;;24.87;30.37;98293.06;5157483;27;20385;-55
2022/05/10 12:45:16;;;;;;;;;;;;;;;24.72;30.35;98297.03;5150308;27;19934;-56
2022/05/10 12:47:47;;;;;;;;;;;;;;;24.65;29.80;98280.34;5168804;27;19967;-55
2022/05/10 12:50:22;;;;;;;;;;;;;;;24.54;30.14;98280.34;5145499;27;19923;-56
2022/05/10 12:52:50;;;;;;;;;;;;;;;24.21;31.93;98276.69;5146264;27;19927;-54
2022/05/10 12:55:22;;;;;;;;;;;;;;;24.10;32.37;98275.09;5147730;27;19924;-55
2022/05/10 12:57:52;;;;;;;;;;;;;;;24.20;32.20;98271.53;5144948;27;19931;-55
2022/05/10 13:00:22;;;;;;;;;;;;;;;24.42;31.05;98267.63;5156156;27;20024;-55
2022/05/10 13:02:54;;;;;;;;;;;;;;;24.48;31.81;98265.25;5144406;27;20043;-55
2022/05/10 13:05:26;;;;;;;;;;;;;;;24.74;29.67;98272.44;5154878;27;19927;-55
2022/05/10 13:08:00;;;;;;;;;;;;;;;24.62;31.25;98262.50;5154716;27;19924;-56
2022/05/10 13:10:30;;;;;;;;;;;;;;;24.46;31.37;98248.22;5168351;27;20295;-56
2022/05/10 13:13:00;;;;;;;;;;;;;;;24.35;30.58;98250.97;5142570;27;20015;-53
2022/05/10 13:15:28;;;;;;;;;;;;;;;24.34;29.88;98256.88;5153296;27;19931;-55
2022/05/10 13:17:56;;;;;;;;;;;;;;;24.41;29.73;98249.41;5151186;27;19927;-54
2022/05/10 13:20:25;;;;;;;;;;;;;;;24.49;28.86;98247.41;5163705;27;20343;-56
2022/05/10 13:22:55;;;;;;;;;;;;;;;24.54;28.79;98242.25;5160482;27;19922;-55
2022/05/10 13:25:27;;;;;;;;;;;;;;;24.63;28.63;98227.97;5162002;27;19930;-55
2022/05/10 13:28:08;;;;;;;;;;;;;;;24.76;28.77;98231.94;5159703;27;20306;-55
2022/05/10 13:30:36;;;;;;;;;;;;;;;24.79;30.60;98230.34;5144979;27;19968;-56
2022/05/10 13:33:04;;;;;;;;;;;;;;;24.94;29.52;98226.38;5142066;27;19924;-55
2022/05/10 13:35:56;;;;;;;;;;;;;;;25.12;28.58;98220.00;5143284;27;19927;-56
2022/05/10 13:38:26;;;;;;;;;;;;;;;25.27;29.21;98218.78;5155894;27;19923;-55
2022/05/10 13:40:55;;;;;;;;;;;;;;;25.12;28.24;98208.88;5154757;27;19965;-55
2022/05/10 13:43:25;;;;;;;;;;;;;;;25.17;28.02;98208.47;5155022;27;19927;-53
2022/05/10 13:45:55;;;;;;;;;;;;;;;25.07;28.63;98201.75;5154217;27;20025;-55
2022/05/10 13:48:48;;;;;;;;;;;;;;;25.18;28.56;98207.28;5153325;27;20414;-54
2022/05/10 13:51:16;;;;;;;;;;;;;;;25.04;27.46;98203.31;5150191;27;20282;-54